Aviation Digital Data Service (ADDS)

Output produced by METARs form (2145 UTC 01 December 2021)
found at http://aviationweather.gov/metar/data/
 
KUTS 012053Z AUTO 25006KT 10SM CLR 25/14 A3008 RMK AO2 SLP184 T02500144 56021
KUTS 011720Z 0118/0218 21009KT P6SM FEW030 SCT250 
     FM020100 VRB03KT P6SM SCT250 
     FM021000 VRB02KT 4SM BR SCT004 SCT250 
     FM021500 20005KT P6SM SCT250